Time;durP1;ratioP1;P1;durP2;ratioP2;P2;SDS_P1;SDS_P2;PMS_P1;PMS_P2;Temp;Humidity;BMP_temperature;BMP_pressure;BME280_temperature;BME280_humidity;BME280_pressure;Samples;Min_cycle;Max_cycle;Signal;HPM_P1;HPM_P2
2022/01/24 00:00:36;;;;;;;0.60;0.60;;;;;;;;;;1753633;80;26302;-32
2022/01/24 00:03:03;;;;;;;0.50;0.50;;;;;;;;;;1761989;80;26293;-29
2022/01/24 00:05:31;;;;;;;0.57;0.50;;;;;;;;;;1756334;80;26364;-31
2022/01/24 00:07:58;;;;;;;0.50;0.50;;;;;;;;;;1763317;80;26301;-28
2022/01/24 00:10:27;;;;;;;0.40;0.40;;;;;;;;;;1758636;80;26725;-27
2022/01/24 00:15:55;;;;;;;0.50;0.50;;;;;;;;;;1749891;80;26320;-28
2022/01/24 00:26:39;;;;;;;0.50;0.50;;;;;;;;;;1749689;80;26439;-31
2022/01/24 00:26:47;;;;;;;0.50;0.50;;;;;;;;;;1759170;80;26350;-29
2022/01/24 00:29:16;;;;;;;0.50;0.50;;;;;;;;;;1774766;80;26329;-34
2022/01/24 00:31:43;;;;;;;0.40;0.40;;;;;;;;;;1747058;80;26303;-29
2022/01/24 00:34:10;;;;;;;0.60;0.60;;;;;;;;;;1749055;80;26363;-30
2022/01/24 00:36:39;;;;;;;0.40;0.40;;;;;;;;;;1754239;80;26742;-29
2022/01/24 00:39:07;;;;;;;0.55;0.55;;;;;;;;;;1755220;80;26363;-34
2022/01/24 00:41:48;;;;;;;0.33;0.33;;;;;;;;;;1755848;80;26320;-31
2022/01/24 00:46:57;;;;;;;0.40;0.40;;;;;;;;;;1737734;80;26692;-30
2022/01/24 00:54:53;;;;;;;0.57;0.57;;;;;;;;;;1746821;80;26316;-28
2022/01/24 00:57:21;;;;;;;0.40;0.40;;;;;;;;;;1745719;80;26352;-30
2022/01/24 00:59:49;;;;;;;0.40;0.40;;;;;;;;;;1750314;80;26309;-29
2022/01/24 01:02:17;;;;;;;0.47;0.47;;;;;;;;;;1757431;80;26843;-31
2022/01/24 01:05:04;;;;;;;0.30;0.30;;;;;;;;;;1753239;80;26306;-30
2022/01/24 01:07:35;;;;;;;0.47;0.47;;;;;;;;;;1734003;80;26338;-34
2022/01/24 01:18:11;;;;;;;0.37;0.37;;;;;;;;;;1773469;80;26774;-30
2022/01/24 01:23:21;;;;;;;0.30;0.30;;;;;;;;;;1758961;80;26328;-30
2022/01/24 01:25:49;;;;;;;0.30;0.30;;;;;;;;;;1760043;80;26337;-32
2022/01/24 01:28:18;;;;;;;0.40;0.40;;;;;;;;;;1752297;80;26313;-34
2022/01/24 01:30:49;;;;;;;0.40;0.40;;;;;;;;;;1752450;81;26762;-31
2022/01/24 01:33:37;;;;;;;0.47;0.47;;;;;;;;;;1763249;80;26593;-33
2022/01/24 01:36:15;;;;;;;1.17;0.40;;;;;;;;;;1755848;80;26332;-32
2022/01/24 01:39:14;;;;;;;0.30;0.30;;;;;;;;;;1764112;80;26407;-30
2022/01/24 01:54:54;;;;;;;0.30;0.30;;;;;;;;;;1716611;80;26387;-30
2022/01/24 01:57:18;;;;;;;0.30;0.30;;;;;;;;;;1753343;80;26336;-31
2022/01/24 01:59:45;;;;;;;0.30;0.30;;;;;;;;;;1731230;80;25762;-30
2022/01/24 02:02:13;;;;;;;0.33;0.30;;;;;;;;;;1745512;80;26371;-31
2022/01/24 02:04:41;;;;;;;1.17;0.30;;;;;;;;;;1777696;80;26324;-31
2022/01/24 02:07:16;;;;;;;0.30;0.30;;;;;;;;;;1761067;80;26809;-30
2022/01/24 02:09:45;;;;;;;0.28;0.28;;;;;;;;;;1751591;80;26335;-32
2022/01/24 02:12:13;;;;;;;0.37;0.37;;;;;;;;;;1747810;80;26305;-29
2022/01/24 02:14:49;;;;;;;0.25;0.25;;;;;;;;;;1771480;79;26699;-34
2022/01/24 02:17:16;;;;;;;0.30;0.30;;;;;;;;;;1767005;80;26275;-30
2022/01/24 02:20:09;;;;;;;0.35;0.30;;;;;;;;;;1769609;80;26590;-30
2022/01/24 02:24:58;;;;;;;0.40;0.40;;;;;;;;;;1769461;80;26384;-32
2022/01/24 02:27:24;;;;;;;0.30;0.30;;;;;;;;;;1771554;80;26368;-32
2022/01/24 02:30:07;;;;;;;0.37;0.30;;;;;;;;;;1772343;80;26836;-33
2022/01/24 02:32:20;;;;;;;0.30;0.30;;;;;;;;;;1757845;80;26312;-34
2022/01/24 02:34:49;;;;;;;1.85;0.40;;;;;;;;;;1760984;80;26297;-30
2022/01/24 02:37:19;;;;;;;0.20;0.20;;;;;;;;;;1768557;80;26274;-30
2022/01/24 02:39:59;;;;;;;0.30;0.30;;;;;;;;;;1766710;80;27002;-29
2022/01/24 02:53:17;;;;;;;0.30;0.30;;;;;;;;;;1759419;80;26398;-32
2022/01/24 02:55:44;;;;;;;0.30;0.30;;;;;;;;;;1773425;80;26394;-30
2022/01/24 02:58:12;;;;;;;0.35;0.20;;;;;;;;;;1767022;80;26365;-34
2022/01/24 03:00:39;;;;;;;0.30;0.30;;;;;;;;;;1772755;80;26325;-30
2022/01/24 03:03:07;;;;;;;0.50;0.50;;;;;;;;;;1764177;80;26370;-30
2022/01/24 03:05:34;;;;;;;0.40;0.40;;;;;;;;;;1765199;80;26250;-30
2022/01/24 03:08:02;;;;;;;0.30;0.30;;;;;;;;;;1771184;80;26433;-33
2022/01/24 03:10:42;;;;;;;0.30;0.30;;;;;;;;;;1766792;80;26412;-31
2022/01/24 03:13:10;;;;;;;0.30;0.30;;;;;;;;;;1758425;80;26364;-32
2022/01/24 03:15:27;;;;;;;0.40;0.40;;;;;;;;;;1764415;80;26297;-31
2022/01/24 03:17:55;;;;;;;0.35;0.35;;;;;;;;;;1759957;80;26367;-34
2022/01/24 03:20:22;;;;;;;0.30;0.30;;;;;;;;;;1770829;80;26379;-35
2022/01/24 03:22:49;;;;;;;0.40;0.40;;;;;;;;;;1751444;80;26317;-32
2022/01/24 03:25:16;;;;;;;0.30;0.30;;;;;;;;;;1766025;80;26774;-34
2022/01/24 03:27:44;;;;;;;0.30;0.30;;;;;;;;;;1762128;80;26947;-30
2022/01/24 03:30:11;;;;;;;0.20;0.20;;;;;;;;;;1773048;80;26838;-31
2022/01/24 03:32:39;;;;;;;0.30;0.30;;;;;;;;;;1773060;80;26753;-30
2022/01/24 03:35:07;;;;;;;0.35;0.35;;;;;;;;;;1764203;80;26764;-29
2022/01/24 03:37:35;;;;;;;0.20;0.20;;;;;;;;;;1771236;80;26842;-31
2022/01/24 03:40:03;;;;;;;0.30;0.30;;;;;;;;;;1766844;80;26405;-33
2022/01/24 03:42:30;;;;;;;0.20;0.20;;;;;;;;;;1758560;80;26862;-35
2022/01/24 03:45:02;;;;;;;0.30;0.30;;;;;;;;;;1766004;80;26376;-30
2022/01/24 03:47:43;;;;;;;0.30;0.30;;;;;;;;;;1762831;80;26765;-31
2022/01/24 03:50:00;;;;;;;0.30;0.30;;;;;;;;;;1763313;80;26376;-31
2022/01/24 03:52:31;;;;;;;0.30;0.30;;;;;;;;;;1753984;80;26395;-32
2022/01/24 03:55:00;;;;;;;0.30;0.30;;;;;;;;;;1760642;80;26794;-31
2022/01/24 03:57:28;;;;;;;0.33;0.33;;;;;;;;;;1751670;80;26849;-31
2022/01/24 03:59:55;;;;;;;0.40;0.40;;;;;;;;;;1753953;80;26316;-31
2022/01/24 04:02:24;;;;;;;0.30;0.30;;;;;;;;;;1745624;80;26368;-32
2022/01/24 04:04:51;;;;;;;0.42;0.42;;;;;;;;;;1736190;80;26301;-32
2022/01/24 04:07:19;;;;;;;0.40;0.40;;;;;;;;;;1733690;80;26315;-31
2022/01/24 04:09:47;;;;;;;0.37;0.37;;;;;;;;;;1759680;80;26377;-32
2022/01/24 04:12:15;;;;;;;0.40;0.40;;;;;;;;;;1748417;80;26619;-34
2022/01/24 04:22:13;;;;;;;0.40;0.40;;;;;;;;;;1754648;80;26327;-33
2022/01/24 04:24:41;;;;;;;0.55;0.40;;;;;;;;;;1764829;80;26329;-34
2022/01/24 04:27:09;;;;;;;0.50;0.50;;;;;;;;;;1761163;80;26283;-29
2022/01/24 04:29:37;;;;;;;0.50;0.40;;;;;;;;;;1758025;80;26736;-32
2022/01/24 04:32:05;;;;;;;0.40;0.40;;;;;;;;;;1752749;80;26838;-30
2022/01/24 04:34:32;;;;;;;0.42;0.42;;;;;;;;;;1759347;80;26774;-30
2022/01/24 04:36:59;;;;;;;0.30;0.30;;;;;;;;;;1764992;80;26708;-29
2022/01/24 04:39:27;;;;;;;0.33;0.33;;;;;;;;;;1769327;80;26705;-31
2022/01/24 04:41:56;;;;;;;0.40;0.40;;;;;;;;;;1763613;80;26774;-31
2022/01/24 04:47:23;;;;;;;0.53;0.40;;;;;;;;;;1704547;83;26397;-29
2022/01/24 04:54:58;;;;;;;0.28;0.28;;;;;;;;;;1763287;80;26372;-32
2022/01/24 04:57:27;;;;;;;0.42;0.42;;;;;;;;;;1756968;80;26459;-31
2022/01/24 04:59:55;;;;;;;0.50;0.30;;;;;;;;;;1771770;80;26416;-32
2022/01/24 05:02:23;;;;;;;0.40;0.37;;;;;;;;;;1759448;80;26792;-35
2022/01/24 05:04:52;;;;;;;0.30;0.30;;;;;;;;;;1753494;80;26275;-35
2022/01/24 05:07:20;;;;;;;0.40;0.40;;;;;;;;;;1759358;80;26802;-29
2022/01/24 05:09:56;;;;;;;0.30;0.30;;;;;;;;;;1765242;80;26281;-30
2022/01/24 05:23:29;;;;;;;0.40;0.40;;;;;;;;;;1718433;80;26350;-29
2022/01/24 05:25:55;;;;;;;0.33;0.33;;;;;;;;;;1763959;80;26360;-30
2022/01/24 05:28:23;;;;;;;0.85;0.30;;;;;;;;;;1761099;80;26307;-33
2022/01/24 05:30:51;;;;;;;0.23;0.23;;;;;;;;;;1757688;80;26819;-32
2022/01/24 05:33:18;;;;;;;0.20;0.20;;;;;;;;;;1755228;80;26768;-29
2022/01/24 05:35:46;;;;;;;0.10;0.10;;;;;;;;;;1749672;80;26313;-30
2022/01/24 05:38:13;;;;;;;0.13;0.13;;;;;;;;;;1777568;80;26301;-29
2022/01/24 05:40:40;;;;;;;0.40;0.40;;;;;;;;;;1752306;80;26827;-31
2022/01/24 05:43:08;;;;;;;0.40;0.40;;;;;;;;;;1743912;80;26868;-30
2022/01/24 05:45:35;;;;;;;0.30;0.30;;;;;;;;;;1762098;80;26343;-32
2022/01/24 05:48:03;;;;;;;0.28;0.28;;;;;;;;;;1772516;81;26286;-43
2022/01/24 05:50:30;;;;;;;0.75;0.20;;;;;;;;;;1752864;80;26297;-33
2022/01/24 05:52:57;;;;;;;0.40;0.40;;;;;;;;;;1742180;80;26307;-33
2022/01/24 05:55:25;;;;;;;0.40;0.40;;;;;;;;;;1754241;80;26312;-32
2022/01/24 05:57:53;;;;;;;0.30;0.30;;;;;;;;;;1755643;80;26893;-31
2022/01/24 06:00:21;;;;;;;1.00;0.35;;;;;;;;;;1758263;80;26431;-33
2022/01/24 06:02:49;;;;;;;0.40;0.40;;;;;;;;;;1752539;80;26301;-35
2022/01/24 06:05:16;;;;;;;0.30;0.30;;;;;;;;;;1761730;80;26326;-44
2022/01/24 06:07:44;;;;;;;0.88;0.40;;;;;;;;;;1752488;80;26402;-33
2022/01/24 06:10:11;;;;;;;2.40;0.40;;;;;;;;;;1762984;80;26287;-32
2022/01/24 06:12:38;;;;;;;3.52;0.30;;;;;;;;;;1751678;80;26344;-30
2022/01/24 06:15:06;;;;;;;2.37;0.40;;;;;;;;;;1752167;80;26689;-33
2022/01/24 06:17:34;;;;;;;0.37;0.37;;;;;;;;;;1751704;80;26398;-41
2022/01/24 06:20:01;;;;;;;0.40;0.30;;;;;;;;;;1753173;80;26441;-36
2022/01/24 06:22:28;;;;;;;0.30;0.30;;;;;;;;;;1756943;80;26348;-39
2022/01/24 06:24:55;;;;;;;0.33;0.33;;;;;;;;;;1758119;80;26332;-36
2022/01/24 06:27:23;;;;;;;0.20;0.20;;;;;;;;;;1766335;80;26304;-39
2022/01/24 06:29:50;;;;;;;0.20;0.20;;;;;;;;;;1774978;80;26426;-34
2022/01/24 06:32:17;;;;;;;0.60;0.35;;;;;;;;;;1767033;80;26363;-33
2022/01/24 06:34:44;;;;;;;0.50;0.33;;;;;;;;;;1767301;80;26310;-37
2022/01/24 06:37:12;;;;;;;0.35;0.35;;;;;;;;;;1758929;80;26336;-31
2022/01/24 06:39:39;;;;;;;2.50;0.98;;;;;;;;;;1756510;80;26300;-37
2022/01/24 06:42:21;;;;;;;1.55;0.37;;;;;;;;;;1755014;80;26375;-31
2022/01/24 06:44:42;;;;;;;0.85;0.30;;;;;;;;;;1754508;80;26344;-37
2022/01/24 06:47:10;;;;;;;1.52;0.30;;;;;;;;;;1757795;80;26780;-32
2022/01/24 06:49:37;;;;;;;0.20;0.20;;;;;;;;;;1762226;80;26387;-30
2022/01/24 06:52:06;;;;;;;0.30;0.30;;;;;;;;;;1759234;80;26321;-30
2022/01/24 06:54:34;;;;;;;0.40;0.40;;;;;;;;;;1751253;80;26371;-32
2022/01/24 06:57:02;;;;;;;0.25;0.25;;;;;;;;;;1765333;80;26301;-32
2022/01/24 06:59:29;;;;;;;0.88;0.37;;;;;;;;;;1763418;80;26418;-33
2022/01/24 07:01:56;;;;;;;0.50;0.50;;;;;;;;;;1758038;80;26973;-33
2022/01/24 07:04:27;;;;;;;0.30;0.30;;;;;;;;;;1755921;80;26301;-35
2022/01/24 07:06:54;;;;;;;0.30;0.30;;;;;;;;;;1753262;80;26855;-33
2022/01/24 07:09:21;;;;;;;0.30;0.30;;;;;;;;;;1758944;80;26786;-32
2022/01/24 07:11:50;;;;;;;0.40;0.40;;;;;;;;;;1750882;80;26301;-31
2022/01/24 07:14:18;;;;;;;0.30;0.25;;;;;;;;;;1754145;80;26659;-42
2022/01/24 07:19:27;;;;;;;0.30;0.30;;;;;;;;;;1764966;80;26937;-33
2022/01/24 07:21:55;;;;;;;0.40;0.40;;;;;;;;;;1761423;80;26286;-32
2022/01/24 07:24:22;;;;;;;0.55;0.55;;;;;;;;;;1776484;80;26348;-30
2022/01/24 07:26:49;;;;;;;0.20;0.20;;;;;;;;;;1748402;80;26371;-32
2022/01/24 07:29:17;;;;;;;0.62;0.40;;;;;;;;;;1743273;80;26299;-33
2022/01/24 07:31:46;;;;;;;0.30;0.30;;;;;;;;;;1766836;80;26290;-34
2022/01/24 07:34:14;;;;;;;0.30;0.30;;;;;;;;;;1761575;80;26420;-32
2022/01/24 07:36:42;;;;;;;0.30;0.30;;;;;;;;;;1730912;80;26402;-36
2022/01/24 07:39:09;;;;;;;0.30;0.30;;;;;;;;;;1749650;80;26345;-34
2022/01/24 07:41:43;;;;;;;0.57;0.45;;;;;;;;;;1758898;80;26346;-31
2022/01/24 07:44:05;;;;;;;0.40;0.40;;;;;;;;;;1747725;80;26382;-32
2022/01/24 07:46:34;;;;;;;0.20;0.20;;;;;;;;;;1755839;80;26365;-31
2022/01/24 07:49:01;;;;;;;0.45;0.40;;;;;;;;;;1756319;80;26745;-34
2022/01/24 07:51:29;;;;;;;2.00;0.47;;;;;;;;;;1758601;80;26237;-30
2022/01/24 07:53:56;;;;;;;0.25;0.25;;;;;;;;;;1753970;80;26371;-29
2022/01/24 07:56:23;;;;;;;1.90;0.33;;;;;;;;;;1754825;80;26296;-35
2022/01/24 07:58:50;;;;;;;0.78;0.30;;;;;;;;;;1762204;80;26333;-38
2022/01/24 08:01:19;;;;;;;0.50;0.37;;;;;;;;;;1759399;80;26343;-39
2022/01/24 08:03:46;;;;;;;0.30;0.30;;;;;;;;;;1758046;80;26317;-43
2022/01/24 08:06:14;;;;;;;0.40;0.40;;;;;;;;;;1753406;80;26951;-40
2022/01/24 08:08:41;;;;;;;0.17;0.17;;;;;;;;;;1754942;80;26285;-37
2022/01/24 08:11:09;;;;;;;0.42;0.30;;;;;;;;;;1759930;80;26281;-33
2022/01/24 08:13:37;;;;;;;0.40;0.40;;;;;;;;;;1751241;80;28476;-36
2022/01/24 08:16:04;;;;;;;1.15;0.30;;;;;;;;;;1753886;80;26339;-35
2022/01/24 08:18:32;;;;;;;0.42;0.30;;;;;;;;;;1762879;80;26297;-37
2022/01/24 08:20:59;;;;;;;0.30;0.30;;;;;;;;;;1751372;80;26316;-36
2022/01/24 08:23:26;;;;;;;0.30;0.30;;;;;;;;;;1751043;80;26296;-37
2022/01/24 08:25:54;;;;;;;0.30;0.30;;;;;;;;;;1752363;80;26302;-40
2022/01/24 08:28:21;;;;;;;1.05;0.28;;;;;;;;;;1751596;80;26332;-31
2022/01/24 08:30:48;;;;;;;0.90;0.37;;;;;;;;;;1754484;80;26793;-32
2022/01/24 08:33:16;;;;;;;0.80;0.60;;;;;;;;;;1744874;80;28523;-34
2022/01/24 08:35:43;;;;;;;0.30;0.30;;;;;;;;;;1753972;80;26296;-31
2022/01/24 08:38:10;;;;;;;0.40;0.40;;;;;;;;;;1759870;80;26299;-32
2022/01/24 08:40:40;;;;;;;0.60;0.45;;;;;;;;;;1740221;80;26298;-33
2022/01/24 08:43:07;;;;;;;1.37;0.40;;;;;;;;;;1752031;80;26309;-33
2022/01/24 08:48:16;;;;;;;0.55;0.30;;;;;;;;;;1748724;80;26411;-32
2022/01/24 08:50:44;;;;;;;1.32;0.40;;;;;;;;;;1750860;80;26432;-35
2022/01/24 08:53:11;;;;;;;0.30;0.30;;;;;;;;;;1748131;80;26309;-36
2022/01/24 08:55:39;;;;;;;0.33;0.30;;;;;;;;;;1749494;79;26833;-36
2022/01/24 08:58:08;;;;;;;1.62;0.40;;;;;;;;;;1744847;80;26342;-32
2022/01/24 09:00:35;;;;;;;0.23;0.23;;;;;;;;;;1751400;80;26332;-34
2022/01/24 09:03:03;;;;;;;0.30;0.30;;;;;;;;;;1757752;80;26889;-32
2022/01/24 09:05:34;;;;;;;0.20;0.20;;;;;;;;;;1761693;80;26297;-31
2022/01/24 09:07:59;;;;;;;0.95;0.30;;;;;;;;;;1762526;80;26300;-35
2022/01/24 09:10:26;;;;;;;2.10;0.30;;;;;;;;;;1758893;80;26301;-37
2022/01/24 09:12:54;;;;;;;1.57;0.30;;;;;;;;;;1755418;80;26383;-32
2022/01/24 09:15:21;;;;;;;0.30;0.30;;;;;;;;;;1754095;80;26312;-34
2022/01/24 09:17:48;;;;;;;0.30;0.30;;;;;;;;;;1754907;80;28434;-31
2022/01/24 09:20:16;;;;;;;0.88;0.20;;;;;;;;;;1755179;80;26300;-36
2022/01/24 09:22:45;;;;;;;0.30;0.30;;;;;;;;;;1753855;80;26752;-35
2022/01/24 09:25:15;;;;;;;1.20;0.30;;;;;;;;;;1746836;80;26698;-41
2022/01/24 09:27:43;;;;;;;0.30;0.30;;;;;;;;;;1748312;80;26380;-35
2022/01/24 09:30:11;;;;;;;0.20;0.20;;;;;;;;;;1775711;80;26776;-35
2022/01/24 09:32:39;;;;;;;2.10;0.30;;;;;;;;;;1783458;80;26289;-34
2022/01/24 09:35:08;;;;;;;0.28;0.20;;;;;;;;;;1768541;80;26848;-33
2022/01/24 09:37:35;;;;;;;0.20;0.20;;;;;;;;;;1743753;80;26787;-37
2022/01/24 09:40:03;;;;;;;0.23;0.23;;;;;;;;;;1764351;80;26347;-34
2022/01/24 09:42:31;;;;;;;0.30;0.30;;;;;;;;;;1753526;80;26772;-37
2022/01/24 09:44:59;;;;;;;2.40;0.33;;;;;;;;;;1760356;80;26718;-35
2022/01/24 09:47:27;;;;;;;0.20;0.20;;;;;;;;;;1751898;80;26365;-36
2022/01/24 09:49:54;;;;;;;0.90;0.30;;;;;;;;;;1761353;80;26418;-38
2022/01/24 09:52:21;;;;;;;0.30;0.30;;;;;;;;;;1751772;80;26837;-36
2022/01/24 09:54:49;;;;;;;1.10;0.53;;;;;;;;;;1748079;80;28587;-43
2022/01/24 09:57:16;;;;;;;0.47;0.33;;;;;;;;;;1755140;80;26345;-43
2022/01/24 09:59:44;;;;;;;0.45;0.45;;;;;;;;;;1755799;80;26903;-42
2022/01/24 10:02:11;;;;;;;0.23;0.23;;;;;;;;;;1763884;80;26333;-38
2022/01/24 10:04:38;;;;;;;0.28;0.28;;;;;;;;;;1747333;80;26309;-52
2022/01/24 10:07:07;;;;;;;0.23;0.20;;;;;;;;;;1755461;80;26300;-46
2022/01/24 10:09:36;;;;;;;0.20;0.20;;;;;;;;;;1750248;80;26189;-53
2022/01/24 10:12:14;;;;;;;0.57;0.30;;;;;;;;;;1754314;80;26391;-48
2022/01/24 10:17:25;;;;;;;0.20;0.20;;;;;;;;;;1757809;80;26404;-51
2022/01/24 10:19:52;;;;;;;0.20;0.20;;;;;;;;;;1753454;80;27588;-49
2022/01/24 10:22:24;;;;;;;0.20;0.20;;;;;;;;;;1757916;80;26351;-51
2022/01/24 10:24:54;;;;;;;0.37;0.37;;;;;;;;;;1747980;80;26840;-49
2022/01/24 10:27:23;;;;;;;0.50;0.23;;;;;;;;;;1753669;80;26397;-48
2022/01/24 10:29:52;;;;;;;0.20;0.13;;;;;;;;;;1754105;80;26313;-47
2022/01/24 10:32:33;;;;;;;0.20;0.20;;;;;;;;;;1753400;80;26310;-53
2022/01/24 10:35:18;;;;;;;0.30;0.30;;;;;;;;;;1754838;80;26321;-50
2022/01/24 10:37:53;;;;;;;0.28;0.28;;;;;;;;;;1754319;80;26349;-48
2022/01/24 10:40:20;;;;;;;1.72;0.40;;;;;;;;;;1752091;80;26371;-46
2022/01/24 10:42:55;;;;;;;0.20;0.20;;;;;;;;;;1755937;80;26337;-55
2022/01/24 10:45:25;;;;;;;0.30;0.30;;;;;;;;;;1753936;80;27371;-53
2022/01/24 10:47:54;;;;;;;0.53;0.40;;;;;;;;;;1753543;80;26296;-51
2022/01/24 10:50:23;;;;;;;0.30;0.30;;;;;;;;;;1763486;80;26303;-48
2022/01/24 10:52:51;;;;;;;0.28;0.28;;;;;;;;;;1747355;80;26337;-51
2022/01/24 10:55:24;;;;;;;1.25;0.30;;;;;;;;;;1752598;80;26410;-50
2022/01/24 10:57:53;;;;;;;0.30;0.30;;;;;;;;;;1753123;80;26938;-47
2022/01/24 11:00:22;;;;;;;1.20;0.37;;;;;;;;;;1754618;80;28323;-45
2022/01/24 11:02:50;;;;;;;1.27;0.40;;;;;;;;;;1752234;80;26438;-46
2022/01/24 11:05:19;;;;;;;0.70;0.30;;;;;;;;;;1754517;80;26459;-50
2022/01/24 11:07:51;;;;;;;0.55;0.40;;;;;;;;;;1761251;80;26686;-51
2022/01/24 11:10:18;;;;;;;1.85;0.40;;;;;;;;;;1767340;80;26729;-47
2022/01/24 11:12:45;;;;;;;0.62;0.40;;;;;;;;;;1744392;80;26246;-46
2022/01/24 11:15:12;;;;;;;1.15;0.30;;;;;;;;;;1770207;80;26278;-43
2022/01/24 11:17:41;;;;;;;0.62;0.30;;;;;;;;;;1750916;80;26399;-49
2022/01/24 11:20:11;;;;;;;10.05;1.45;;;;;;;;;;1758568;80;26266;-42
2022/01/24 11:22:44;;;;;;;0.30;0.30;;;;;;;;;;1778798;80;26372;-44
2022/01/24 11:25:08;;;;;;;0.30;0.30;;;;;;;;;;1749039;80;26871;-48
2022/01/24 11:27:36;;;;;;;0.20;0.20;;;;;;;;;;1757641;80;26325;-46
2022/01/24 11:30:06;;;;;;;0.30;0.30;;;;;;;;;;1746764;80;26308;-47
2022/01/24 11:32:40;;;;;;;0.28;0.20;;;;;;;;;;1762090;80;26742;-47
2022/01/24 11:35:09;;;;;;;0.40;0.28;;;;;;;;;;1757148;80;26372;-45
2022/01/24 11:37:38;;;;;;;0.50;0.50;;;;;;;;;;1741820;80;26363;-44
2022/01/24 11:40:07;;;;;;;0.43;0.20;;;;;;;;;;1756852;80;23040;-45
2022/01/24 11:42:36;;;;;;;1.10;0.40;;;;;;;;;;1722820;80;28601;-55
2022/01/24 11:45:13;;;;;;;0.90;0.30;;;;;;;;;;1754207;80;26313;-49
2022/01/24 11:47:37;;;;;;;0.98;0.47;;;;;;;;;;1749336;80;26922;-53
2022/01/24 11:50:22;;;;;;;0.20;0.20;;;;;;;;;;1761073;80;26375;-44
2022/01/24 11:52:50;;;;;;;0.30;0.30;;;;;;;;;;1756231;80;26376;-53
2022/01/24 11:55:31;;;;;;;0.42;0.33;;;;;;;;;;1760011;80;26743;-47
2022/01/24 11:57:51;;;;;;;0.70;0.50;;;;;;;;;;1754203;80;26961;-56
2022/01/24 12:00:23;;;;;;;1.82;1.52;;;;;;;;;;1756529;80;26372;-59
2022/01/24 12:02:55;;;;;;;0.90;0.60;;;;;;;;;;1751010;80;26537;-55
2022/01/24 12:05:29;;;;;;;0.62;0.47;;;;;;;;;;1762773;80;27155;-50
2022/01/24 12:07:58;;;;;;;0.68;0.57;;;;;;;;;;1750761;80;26300;-48
2022/01/24 12:10:37;;;;;;;0.93;0.70;;;;;;;;;;1749771;80;26359;-54
2022/01/24 12:13:02;;;;;;;3.25;0.53;;;;;;;;;;1749376;80;26415;-51
2022/01/24 12:15:36;;;;;;;0.80;0.60;;;;;;;;;;1753030;80;26360;-47
2022/01/24 12:18:04;;;;;;;0.50;0.50;;;;;;;;;;1753978;80;26294;-47
2022/01/24 12:20:36;;;;;;;2.35;0.50;;;;;;;;;;1753971;80;26760;-62
2022/01/24 12:23:20;;;;;;;0.42;0.42;;;;;;;;;;1758290;80;26888;-48
2022/01/24 12:25:58;;;;;;;0.62;0.55;;;;;;;;;;1758899;80;26312;-48
2022/01/24 12:28:27;;;;;;;0.60;0.60;;;;;;;;;;1754601;80;26316;-50
2022/01/24 12:31:11;;;;;;;1.62;0.45;;;;;;;;;;1754874;80;27033;-53
2022/01/24 12:33:42;;;;;;;3.27;0.47;;;;;;;;;;1757156;80;26297;-48
2022/01/24 12:36:11;;;;;;;0.50;0.50;;;;;;;;;;1752604;80;26830;-48
2022/01/24 12:38:43;;;;;;;0.53;0.47;;;;;;;;;;1766426;80;26324;-51
2022/01/24 12:41:26;;;;;;;0.98;0.60;;;;;;;;;;1759739;80;26240;-48
2022/01/24 12:43:58;;;;;;;1.95;0.50;;;;;;;;;;1714941;80;26317;-50
2022/01/24 12:46:25;;;;;;;0.95;0.60;;;;;;;;;;1769687;80;26349;-55
2022/01/24 12:48:53;;;;;;;0.55;0.53;;;;;;;;;;1766985;80;26305;-45
2022/01/24 12:51:22;;;;;;;0.60;0.60;;;;;;;;;;1772531;80;26308;-58
2022/01/24 12:53:50;;;;;;;0.50;0.50;;;;;;;;;;1762437;80;26348;-48
2022/01/24 12:56:18;;;;;;;0.50;0.50;;;;;;;;;;1768193;80;26385;-49
2022/01/24 12:58:47;;;;;;;0.90;0.50;;;;;;;;;;1764559;80;26414;-52
2022/01/24 13:01:22;;;;;;;1.05;0.65;;;;;;;;;;1773631;80;26792;-56
2022/01/24 13:04:00;;;;;;;0.40;0.40;;;;;;;;;;1756376;80;26852;-51
2022/01/24 13:06:29;;;;;;;0.50;0.50;;;;;;;;;;1761896;80;26309;-45
2022/01/24 13:09:14;;;;;;;0.82;0.60;;;;;;;;;;1754436;80;26320;-53
2022/01/24 13:11:49;;;;;;;0.70;0.70;;;;;;;;;;1746823;80;26312;-49
2022/01/24 13:14:23;;;;;;;0.68;0.60;;;;;;;;;;1752667;80;26410;-45
2022/01/24 13:22:30;;;;;;;2.90;0.70;;;;;;;;;;1753559;80;26266;-48
2022/01/24 13:25:10;;;;;;;0.47;0.40;;;;;;;;;;1748210;80;26345;-57
2022/01/24 13:27:41;;;;;;;0.50;0.50;;;;;;;;;;1750334;80;26363;-56
2022/01/24 13:30:10;;;;;;;0.45;0.45;;;;;;;;;;1741898;80;26376;-49
2022/01/24 13:32:47;;;;;;;0.50;0.50;;;;;;;;;;1750792;80;26367;-47
2022/01/24 13:35:15;;;;;;;0.50;0.50;;;;;;;;;;1747971;80;26262;-47
2022/01/24 13:37:43;;;;;;;0.40;0.40;;;;;;;;;;1752170;80;26316;-48
2022/01/24 13:40:10;;;;;;;0.47;0.47;;;;;;;;;;1755076;80;26809;-47
2022/01/24 13:42:38;;;;;;;0.68;0.50;;;;;;;;;;1752789;80;26402;-49
2022/01/24 13:45:08;;;;;;;0.55;0.55;;;;;;;;;;1753492;80;27536;-48
2022/01/24 13:47:36;;;;;;;1.30;0.40;;;;;;;;;;1756664;80;26332;-49
2022/01/24 13:50:04;;;;;;;0.53;0.53;;;;;;;;;;1757228;80;26312;-42
2022/01/24 13:52:31;;;;;;;0.60;0.60;;;;;;;;;;1755671;80;26383;-51
2022/01/24 13:55:15;;;;;;;1.77;0.70;;;;;;;;;;1754213;80;26344;-50
2022/01/24 13:57:46;;;;;;;0.50;0.50;;;;;;;;;;1750018;80;26649;-51
2022/01/24 14:00:15;;;;;;;1.07;0.50;;;;;;;;;;1755035;80;25705;-50
2022/01/24 14:02:43;;;;;;;0.53;0.53;;;;;;;;;;1750262;80;26844;-53
2022/01/24 14:05:10;;;;;;;0.80;0.40;;;;;;;;;;1753498;80;26355;-47
2022/01/24 14:07:47;;;;;;;0.70;0.53;;;;;;;;;;1752542;80;26332;-53
2022/01/24 14:10:09;;;;;;;0.50;0.50;;;;;;;;;;1751135;80;26305;-48
2022/01/24 14:12:46;;;;;;;0.40;0.40;;;;;;;;;;1754474;80;26308;-50
2022/01/24 14:18:18;;;;;;;0.85;0.37;;;;;;;;;;1749413;80;26316;-50
2022/01/24 14:20:21;;;;;;;0.35;0.35;;;;;;;;;;1752768;80;26247;-48
2022/01/24 14:22:51;;;;;;;6.00;0.47;;;;;;;;;;1764050;80;26310;-50
2022/01/24 14:25:21;;;;;;;0.53;0.53;;;;;;;;;;1758225;80;26816;-46
2022/01/24 14:27:49;;;;;;;0.72;0.55;;;;;;;;;;1746125;80;26313;-50
2022/01/24 14:30:21;;;;;;;0.85;0.82;;;;;;;;;;1755237;80;26812;-45
2022/01/24 14:32:59;;;;;;;0.65;0.65;;;;;;;;;;1755766;80;27269;-45
2022/01/24 14:35:29;;;;;;;0.90;0.57;;;;;;;;;;1725749;80;26370;-49
2022/01/24 14:37:59;;;;;;;0.30;0.30;;;;;;;;;;1760083;80;26709;-46
2022/01/24 14:40:37;;;;;;;0.40;0.40;;;;;;;;;;1759512;80;26712;-46
2022/01/24 14:45:49;;;;;;;0.50;0.50;;;;;;;;;;1756186;80;26397;-50
2022/01/24 14:48:17;;;;;;;0.53;0.53;;;;;;;;;;1761552;80;26725;-49
2022/01/24 14:50:44;;;;;;;0.72;0.37;;;;;;;;;;1758641;80;26770;-52
2022/01/24 14:53:15;;;;;;;0.65;0.50;;;;;;;;;;1753740;80;26368;-47
2022/01/24 14:55:40;;;;;;;0.60;0.60;;;;;;;;;;1758460;80;26308;-49
2022/01/24 14:58:07;;;;;;;1.20;0.50;;;;;;;;;;1739964;80;38968;-46
2022/01/24 15:00:35;;;;;;;0.62;0.62;;;;;;;;;;1755874;80;26270;-48
2022/01/24 15:03:03;;;;;;;0.45;0.45;;;;;;;;;;1754610;80;26368;-46
2022/01/24 15:05:30;;;;;;;0.68;0.30;;;;;;;;;;1756151;80;26312;-53
2022/01/24 15:07:57;;;;;;;0.60;0.60;;;;;;;;;;1745740;79;28564;-55
2022/01/24 15:10:25;;;;;;;2.10;0.50;;;;;;;;;;1754903;80;26784;-46
2022/01/24 15:12:54;;;;;;;0.40;0.40;;;;;;;;;;1760177;80;26360;-46
2022/01/24 15:15:23;;;;;;;1.17;0.40;;;;;;;;;;1756056;80;26310;-50
2022/01/24 15:26:07;;;;;;;0.50;0.50;;;;;;;;;;1756805;80;26475;-49
2022/01/24 15:28:37;;;;;;;0.53;0.53;;;;;;;;;;1768244;80;26314;-93
2022/01/24 15:31:04;;;;;;;0.47;0.47;;;;;;;;;;1762016;80;26398;-52
2022/01/24 15:33:31;;;;;;;0.62;0.40;;;;;;;;;;1765746;80;26707;-48
2022/01/24 15:35:58;;;;;;;1.10;0.53;;;;;;;;;;1754526;80;26317;-47
2022/01/24 15:38:25;;;;;;;0.98;0.40;;;;;;;;;;1762925;80;26269;-49
2022/01/24 15:40:53;;;;;;;0.35;0.35;;;;;;;;;;1766259;80;26378;-51
2022/01/24 15:48:24;;;;;;;1.22;0.40;;;;;;;;;;1765406;80;26859;-48
2022/01/24 15:50:52;;;;;;;0.40;0.40;;;;;;;;;;1756437;80;26314;-48
2022/01/24 15:53:19;;;;;;;0.45;0.45;;;;;;;;;;1767316;79;26308;-49
2022/01/24 15:56:12;;;;;;;0.50;0.50;;;;;;;;;;1763089;80;26328;-55
2022/01/24 15:58:18;;;;;;;0.65;0.40;;;;;;;;;;1763918;80;26365;-46
2022/01/24 16:00:45;;;;;;;0.50;0.50;;;;;;;;;;1771400;80;26975;-49
2022/01/24 16:03:12;;;;;;;0.40;0.40;;;;;;;;;;1764565;80;26883;-49
2022/01/24 16:05:40;;;;;;;0.30;0.30;;;;;;;;;;1759192;80;26391;-49
2022/01/24 16:08:15;;;;;;;0.85;0.50;;;;;;;;;;1753515;80;26567;-49
2022/01/24 16:10:40;;;;;;;0.40;0.40;;;;;;;;;;1746720;80;26441;-53
2022/01/24 16:13:07;;;;;;;0.40;0.40;;;;;;;;;;1753523;80;26785;-47
2022/01/24 16:15:35;;;;;;;1.82;0.42;;;;;;;;;;1738350;80;26361;-53
2022/01/24 16:18:03;;;;;;;3.92;0.55;;;;;;;;;;1742945;80;27250;-56
2022/01/24 16:25:39;;;;;;;0.62;0.30;;;;;;;;;;1754205;80;26336;-58
2022/01/24 16:28:08;;;;;;;0.37;0.37;;;;;;;;;;1754770;80;26650;-52
2022/01/24 16:30:37;;;;;;;0.70;0.40;;;;;;;;;;1762623;80;26292;-52
2022/01/24 16:33:05;;;;;;;0.33;0.33;;;;;;;;;;1753080;80;26359;-53
2022/01/24 16:35:33;;;;;;;1.10;0.50;;;;;;;;;;1753126;80;26352;-53
2022/01/24 16:38:01;;;;;;;0.42;0.42;;;;;;;;;;1757574;80;26387;-53
2022/01/24 16:40:42;;;;;;;0.42;0.42;;;;;;;;;;1771505;80;26318;-58
2022/01/24 16:43:21;;;;;;;0.33;0.33;;;;;;;;;;1739708;80;26331;-51
2022/01/24 16:48:24;;;;;;;0.75;0.40;;;;;;;;;;1756216;80;26452;-53
2022/01/24 16:50:52;;;;;;;0.45;0.45;;;;;;;;;;1768858;80;26761;-53
2022/01/24 16:53:20;;;;;;;0.40;0.40;;;;;;;;;;1755306;80;26312;-48
2022/01/24 16:55:51;;;;;;;0.50;0.50;;;;;;;;;;1752861;80;26300;-53